Time;durP1;ratioP1;P1;durP2;ratioP2;P2;SDS_P1;SDS_P2;PMS_P1;PMS_P2;Temp;Humidity;BMP_temperature;BMP_pressure;BME280_temperature;BME280_humidity;BME280_pressure;Samples;Min_cycle;Max_cycle;Signal;HPM_P1;HPM_P2
2021/03/05 00:02:17;0.00;0.00;0.62;0.00;0.00;0.62;1.60;1.10;;;23.60;24.80;;;;;;2245168;61;20441;-65
2021/03/05 00:05:03;0.00;0.00;0.62;0.00;0.00;0.62;1.30;0.80;;;23.60;24.80;;;;;;2245367;61;20372;-65
2021/03/05 00:07:48;0.00;0.00;0.62;0.00;0.00;0.62;1.27;0.80;;;23.60;24.80;;;;;;2245160;61;20396;-65
2021/03/05 00:10:35;0.00;0.00;0.62;0.00;0.00;0.62;1.60;1.00;;;23.60;24.80;;;;;;2245790;61;20371;-65
2021/03/05 00:13:22;0.00;0.00;0.62;0.00;0.00;0.62;1.57;0.83;;;23.60;24.80;;;;;;2245728;61;20439;-65
2021/03/05 00:16:07;0.00;0.00;0.62;0.00;0.00;0.62;1.40;0.90;;;23.60;24.80;;;;;;2245347;61;20366;-65
2021/03/05 00:18:52;0.00;0.00;0.62;0.00;0.00;0.62;1.70;0.77;;;23.60;24.80;;;;;;2245667;61;20405;-65
2021/03/05 00:21:37;0.00;0.00;0.62;0.00;0.00;0.62;1.70;0.90;;;23.60;25.30;;;;;;2245840;61;20806;-65
2021/03/05 00:24:21;0.00;0.00;0.62;0.00;0.00;0.62;1.30;0.90;;;23.60;24.80;;;;;;2245688;61;20369;-65
2021/03/05 00:27:06;0.00;0.00;0.62;0.00;0.00;0.62;1.40;0.80;;;23.60;24.80;;;;;;2245913;61;20443;-65
2021/03/05 00:29:51;0.00;0.00;0.62;0.00;0.00;0.62;1.40;1.00;;;23.60;24.80;;;;;;2245626;61;20467;-65
2021/03/05 00:32:36;0.00;0.00;0.62;0.00;0.00;0.62;1.70;0.90;;;23.60;24.80;;;;;;2245569;61;20726;-65
2021/03/05 00:35:22;0.00;0.00;0.62;0.00;0.00;0.62;1.80;0.77;;;23.60;24.80;;;;;;2245797;61;20741;-65
2021/03/05 00:38:06;0.00;0.00;0.62;0.00;0.00;0.62;1.40;0.90;;;23.60;24.80;;;;;;2245285;61;20421;-65
2021/03/05 00:40:51;0.00;0.00;0.62;0.00;0.00;0.62;1.40;0.80;;;23.60;24.80;;;;;;2245685;61;20752;-65
2021/03/05 00:43:36;0.00;0.00;0.62;0.00;0.00;0.62;1.20;0.80;;;23.60;24.80;;;;;;2245848;61;20591;-65
2021/03/05 00:46:22;0.00;0.00;0.62;0.00;0.00;0.62;1.73;1.20;;;23.60;24.80;;;;;;2245603;61;20438;-64
2021/03/05 00:49:07;0.00;0.00;0.62;0.00;0.00;0.62;1.73;1.00;;;23.60;24.80;;;;;;2245188;61;20387;-63
2021/03/05 00:51:52;0.00;0.00;0.62;0.00;0.00;0.62;1.60;0.90;;;23.60;24.80;;;;;;2245526;61;20392;-64
2021/03/05 00:54:38;0.00;0.00;0.62;0.00;0.00;0.62;1.30;0.83;;;23.60;24.80;;;;;;2245327;61;20716;-64
2021/03/05 00:57:23;0.00;0.00;0.62;0.00;0.00;0.62;1.20;0.90;;;23.60;24.80;;;;;;2245754;61;20388;-63
2021/03/05 01:00:10;0.00;0.00;0.62;0.00;0.00;0.62;1.57;0.70;;;23.60;24.80;;;;;;2245480;61;20372;-65
2021/03/05 01:02:55;0.00;0.00;0.62;0.00;0.00;0.62;1.10;0.70;;;23.60;24.80;;;;;;2245254;61;20374;-65
2021/03/05 01:05:40;0.00;0.00;0.62;0.00;0.00;0.62;1.20;0.83;;;23.60;24.80;;;;;;2245755;61;20372;-65
2021/03/05 01:08:28;0.00;0.00;0.62;0.00;0.00;0.62;1.20;0.77;;;23.60;24.80;;;;;;2244941;61;20441;-65
2021/03/05 01:11:12;0.00;0.00;0.62;0.00;0.00;0.62;1.20;0.73;;;23.60;24.80;;;;;;2245869;61;20393;-65
2021/03/05 01:13:57;0.00;0.00;0.62;0.00;0.00;0.62;1.50;1.00;;;23.60;24.80;;;;;;2245648;61;20370;-65
2021/03/05 01:16:41;0.00;0.00;0.62;0.00;0.00;0.62;1.47;0.80;;;23.60;24.80;;;;;;2245539;61;20727;-65
2021/03/05 01:19:28;0.00;0.00;0.62;0.00;0.00;0.62;1.83;0.80;;;23.60;24.80;;;;;;2245548;61;20433;-64
2021/03/05 01:22:12;0.00;0.00;0.62;0.00;0.00;0.62;1.80;1.00;;;23.60;24.80;;;;;;2245556;61;20396;-64
2021/03/05 01:24:57;0.00;0.00;0.62;0.00;0.00;0.62;1.80;1.10;;;23.60;24.80;;;;;;2245894;61;20365;-70
2021/03/05 01:27:42;0.00;0.00;0.62;0.00;0.00;0.62;2.20;0.97;;;23.60;24.80;;;;;;2245509;61;20510;-69
2021/03/05 01:30:27;0.00;0.00;0.62;0.00;0.00;0.62;3.40;1.30;;;23.60;24.80;;;;;;2245618;61;20443;-69
2021/03/05 01:33:12;0.00;0.00;0.62;0.00;0.00;0.62;2.00;1.03;;;23.60;24.80;;;;;;2245609;61;20405;-68
2021/03/05 01:35:56;0.00;0.00;0.62;0.00;0.00;0.62;2.33;2.00;;;23.60;24.70;;;;;;2245274;61;20373;-65
2021/03/05 01:38:41;0.00;0.00;0.62;0.00;0.00;0.62;4.30;1.97;;;23.60;24.20;;;;;;2244513;61;20756;-66
2021/03/05 01:41:26;0.00;0.00;0.62;0.00;0.00;0.62;2.23;1.70;;;23.60;23.40;;;;;;2245027;61;20366;-68
2021/03/05 01:44:13;0.00;0.00;0.62;0.00;0.00;0.62;4.37;2.37;;;23.60;22.70;;;;;;2245545;61;20357;-68
2021/03/05 01:46:58;0.00;0.00;0.62;0.00;0.00;0.62;2.90;1.97;;;23.50;21.80;;;;;;2244917;61;20461;-68
2021/03/05 01:49:42;0.00;0.00;0.62;0.00;0.00;0.62;3.20;2.10;;;23.40;21.50;;;;;;2245265;61;20416;-68
2021/03/05 01:52:27;0.00;0.00;0.62;0.00;0.00;0.62;4.07;2.47;;;23.40;21.20;;;;;;2245450;61;20368;-68
2021/03/05 01:55:12;0.00;0.00;0.62;0.00;0.00;0.62;2.43;1.97;;;23.30;20.90;;;;;;2244925;61;20369;-68
2021/03/05 01:57:59;0.00;0.00;0.62;0.00;0.00;0.62;2.17;1.97;;;23.20;20.60;;;;;;2245117;61;20390;-71
2021/03/05 02:00:48;0.00;0.00;0.62;0.00;0.00;0.62;3.43;1.60;;;23.10;20.50;;;;;;2245559;61;20398;-70
2021/03/05 02:03:32;0.00;0.00;0.62;0.00;0.00;0.62;2.60;1.57;;;23.10;20.80;;;;;;2245582;61;20442;-68
2021/03/05 02:06:18;0.00;0.00;0.62;0.00;0.00;0.62;2.03;1.63;;;23.00;20.90;;;;;;2245115;61;20361;-68
2021/03/05 02:09:06;0.00;0.00;0.62;0.00;0.00;0.62;3.70;2.00;;;22.90;20.80;;;;;;2245226;61;20517;-69
2021/03/05 02:11:50;0.00;0.00;0.62;0.00;0.00;0.62;5.37;2.20;;;22.80;21.10;;;;;;2245211;61;20361;-68
2021/03/05 02:14:35;0.00;0.00;0.62;0.00;0.00;0.62;1.93;1.57;;;22.80;21.30;;;;;;2245559;61;20368;-70
2021/03/05 02:17:26;0.00;0.00;0.62;0.00;0.00;0.62;2.37;1.43;;;22.80;21.50;;;;;;2245075;61;20373;-68
2021/03/05 02:20:29;0.00;0.00;0.62;0.00;0.00;0.62;2.73;1.50;;;22.80;21.60;;;;;;2245285;61;20365;-68
2021/03/05 02:23:39;0.00;0.00;0.62;0.00;0.00;0.62;2.60;1.40;;;22.80;21.70;;;;;;2245158;61;20437;-68
2021/03/05 02:26:59;0.00;0.00;0.62;0.00;0.00;0.62;2.73;1.40;;;22.70;21.70;;;;;;2245290;61;20477;-69
2021/03/05 02:30:49;0.00;0.00;0.62;0.00;0.00;0.62;2.63;1.20;;;22.70;21.80;;;;;;2245556;61;20572;-69
2021/03/05 02:33:44;0.00;0.00;0.62;0.00;0.00;0.62;2.20;1.20;;;22.70;21.90;;;;;;2245183;61;20459;-68
2021/03/05 02:36:36;0.00;0.00;0.62;0.00;0.00;0.62;1.60;1.20;;;22.60;21.90;;;;;;2245592;61;20395;-68
2021/03/05 02:39:29;0.00;0.00;0.62;0.00;0.00;0.62;2.07;1.17;;;22.60;21.90;;;;;;2245186;61;20396;-68
2021/03/05 02:42:22;0.00;0.00;0.62;0.00;0.00;0.62;2.70;1.30;;;22.50;21.90;;;;;;2245302;61;20383;-68
2021/03/05 02:45:10;0.00;0.00;0.62;0.00;0.00;0.62;2.97;1.20;;;22.50;21.90;;;;;;2245290;61;20460;-68
2021/03/05 02:48:02;0.00;0.00;0.62;0.00;0.00;0.62;1.70;1.00;;;22.50;21.90;;;;;;2245052;61;20662;-68
2021/03/05 02:50:55;0.00;0.00;0.62;0.00;0.00;0.62;1.80;1.07;;;22.50;22.00;;;;;;2245441;61;20371;-68
2021/03/05 02:53:42;0.00;0.00;0.62;0.00;0.00;0.62;2.70;1.00;;;22.50;22.00;;;;;;2245024;61;20361;-68
2021/03/05 02:56:31;0.00;0.00;0.62;0.00;0.00;0.62;2.70;1.43;;;22.50;22.10;;;;;;2245197;61;20362;-68
2021/03/05 02:59:16;0.00;0.00;0.62;0.00;0.00;0.62;2.23;1.30;;;22.40;22.10;;;;;;2245369;61;20402;-67
2021/03/05 03:02:01;0.00;0.00;0.62;0.00;0.00;0.62;1.63;1.03;;;22.40;22.10;;;;;;2245134;61;20372;-68
2021/03/05 03:04:47;0.00;0.00;0.62;0.00;0.00;0.62;2.27;1.00;;;22.40;22.20;;;;;;2244711;61;20395;-67
2021/03/05 03:07:33;0.00;0.00;0.62;0.00;0.00;0.62;1.40;1.00;;;22.40;22.20;;;;;;2245073;61;20384;-67
2021/03/05 03:10:20;0.00;0.00;0.62;0.00;0.00;0.62;3.50;1.87;;;22.30;22.10;;;;;;2245153;61;20547;-68
2021/03/05 03:13:07;0.00;0.00;0.62;0.00;0.00;0.62;2.87;1.50;;;22.40;22.20;;;;;;2245321;61;20389;-68
2021/03/05 03:15:53;0.00;0.00;0.62;0.00;0.00;0.62;1.80;1.10;;;22.30;22.20;;;;;;2242049;61;20411;-68
2021/03/05 03:18:39;0.00;0.00;0.62;0.00;0.00;0.62;1.97;1.43;;;22.30;22.20;;;;;;2244913;61;20477;-68
2021/03/05 03:21:26;0.00;0.00;0.62;0.00;0.00;0.62;2.37;1.40;;;22.30;22.20;;;;;;2245426;61;20380;-68
2021/03/05 03:24:11;0.00;0.00;0.62;0.00;0.00;0.62;3.13;1.10;;;22.30;22.20;;;;;;2245087;61;20372;-68
2021/03/05 03:26:57;0.00;0.00;0.62;0.00;0.00;0.62;1.70;0.90;;;22.30;22.20;;;;;;2244919;61;20381;-68
2021/03/05 03:29:41;0.00;0.00;0.62;0.00;0.00;0.62;2.00;1.07;;;22.20;22.20;;;;;;2245245;61;20384;-68
2021/03/05 03:32:27;0.00;0.00;0.62;0.00;0.00;0.62;1.70;1.07;;;22.20;22.20;;;;;;2244600;61;20383;-68
2021/03/05 03:35:13;0.00;0.00;0.62;0.00;0.00;0.62;1.40;0.70;;;22.20;22.20;;;;;;2245289;61;20476;-68
2021/03/05 03:38:00;0.00;0.00;0.62;0.00;0.00;0.62;1.70;1.20;;;22.20;22.20;;;;;;2244863;61;20426;-69
2021/03/05 03:40:46;0.00;0.00;0.62;0.00;0.00;0.62;2.93;1.07;;;22.20;22.20;;;;;;2245001;61;20359;-68
2021/03/05 03:43:30;0.00;0.00;0.62;0.00;0.00;0.62;2.00;1.10;;;22.10;22.10;;;;;;2245796;61;20364;-68
2021/03/05 03:46:15;0.00;0.00;0.62;0.00;0.00;0.62;1.80;1.10;;;22.10;22.10;;;;;;2245300;61;20364;-68
2021/03/05 03:49:06;0.00;0.00;0.62;0.00;0.00;0.62;1.67;1.03;;;22.10;22.10;;;;;;2245608;61;20399;-68
2021/03/05 03:51:56;0.00;0.00;0.62;0.00;0.00;0.62;1.50;1.10;;;22.10;22.20;;;;;;2245524;61;20712;-68
2021/03/05 03:54:43;0.00;0.00;0.62;0.00;0.00;0.62;2.40;1.33;;;22.10;22.20;;;;;;2245545;61;20375;-68
2021/03/05 03:57:30;0.00;0.00;0.62;0.00;0.00;0.62;1.90;1.00;;;22.00;22.10;;;;;;2245927;61;20373;-68
2021/03/05 04:00:18;0.00;0.00;0.62;0.00;0.00;0.62;2.07;1.20;;;22.00;22.20;;;;;;2245583;61;20399;-68
2021/03/05 04:03:05;0.00;0.00;0.62;0.00;0.00;0.62;3.33;1.20;;;22.00;22.20;;;;;;2245792;61;20399;-68
2021/03/05 04:05:51;0.00;0.00;0.62;0.00;0.00;0.62;1.87;1.10;;;21.90;22.10;;;;;;2246130;61;20373;-68
2021/03/05 04:08:41;0.00;0.00;0.62;0.00;0.00;0.62;1.67;0.90;;;22.00;22.20;;;;;;2242304;61;20463;-68
2021/03/05 04:11:28;0.00;0.00;0.62;0.00;0.00;0.62;2.90;1.47;;;21.90;22.20;;;;;;2245430;61;20372;-68
2021/03/05 04:14:13;0.00;0.00;0.62;0.00;0.00;0.62;2.30;1.00;;;21.90;22.80;;;;;;2245668;61;20735;-68
2021/03/05 04:16:58;0.00;0.00;0.62;0.00;0.00;0.62;2.23;0.90;;;21.90;22.30;;;;;;2245896;61;20375;-68
2021/03/05 04:19:44;0.00;0.00;0.62;0.00;0.00;0.62;2.30;1.30;;;21.90;22.30;;;;;;2245990;61;20430;-68
2021/03/05 04:22:29;0.00;0.00;0.62;0.00;0.00;0.62;1.60;1.17;;;21.80;22.30;;;;;;2245671;61;20628;-68
2021/03/05 04:25:16;0.00;0.00;0.62;0.00;0.00;0.62;1.93;1.50;;;21.80;22.30;;;;;;2245705;61;20372;-68
2021/03/05 04:28:02;0.00;0.00;0.62;0.00;0.00;0.62;1.70;1.00;;;21.80;22.30;;;;;;2245391;61;20404;-68
2021/03/05 04:30:47;0.00;0.00;0.62;0.00;0.00;0.62;1.30;0.90;;;21.80;22.30;;;;;;2245706;61;20376;-68
2021/03/05 04:33:31;0.00;0.00;0.62;0.00;0.00;0.62;1.50;0.90;;;21.80;22.30;;;;;;2245695;61;20392;-68
2021/03/05 04:36:16;0.00;0.00;0.62;0.00;0.00;0.62;1.83;1.10;;;21.80;22.30;;;;;;2245528;61;20363;-68
2021/03/05 04:39:01;0.00;0.00;0.62;0.00;0.00;0.62;1.80;1.13;;;21.70;22.20;;;;;;2245490;61;20391;-68
2021/03/05 04:41:46;0.00;0.00;0.62;0.00;0.00;0.62;1.97;0.97;;;21.70;22.10;;;;;;2245919;61;20371;-68
2021/03/05 04:44:32;0.00;0.00;0.62;0.00;0.00;0.62;1.87;1.00;;;21.70;22.20;;;;;;2245673;61;20633;-68
2021/03/05 04:47:16;0.00;0.00;0.62;0.00;0.00;0.62;1.60;1.07;;;21.70;22.20;;;;;;2245206;61;20373;-68
2021/03/05 04:50:01;0.00;0.00;0.62;0.00;0.00;0.62;1.67;1.03;;;21.60;22.10;;;;;;2245973;61;20400;-68
2021/03/05 04:52:46;0.00;0.00;0.62;0.00;0.00;0.62;2.13;1.10;;;21.60;22.10;;;;;;2245506;61;20451;-68
2021/03/05 04:55:31;0.00;0.00;0.62;0.00;0.00;0.62;1.90;1.10;;;21.60;22.10;;;;;;2245698;61;20366;-68
2021/03/05 04:58:16;0.00;0.00;0.62;0.00;0.00;0.62;1.80;0.97;;;21.60;22.10;;;;;;2245807;61;20388;-68
2021/03/05 05:01:01;0.00;0.00;0.62;0.00;0.00;0.62;2.63;1.30;;;21.50;22.00;;;;;;2245921;61;20590;-70
2021/03/05 05:03:46;0.00;0.00;0.62;0.00;0.00;0.62;1.87;0.90;;;21.50;22.00;;;;;;2246089;61;20488;-68
2021/03/05 05:06:31;0.00;0.00;0.62;0.00;0.00;0.62;2.53;1.50;;;21.50;22.00;;;;;;2245458;61;20748;-68
2021/03/05 05:09:15;0.00;0.00;0.62;0.00;0.00;0.62;1.97;1.10;;;21.50;22.00;;;;;;2245595;61;20442;-69
2021/03/05 05:12:01;0.00;0.00;0.62;0.00;0.00;0.62;1.83;0.93;;;21.50;22.00;;;;;;2245777;61;20420;-69
2021/03/05 05:14:46;0.00;0.00;0.62;0.00;0.00;0.62;2.73;0.93;;;21.50;22.00;;;;;;2245464;61;20375;-69
2021/03/05 05:17:31;0.00;0.00;0.62;0.00;0.00;0.62;2.67;1.30;;;21.40;22.00;;;;;;2245543;61;20364;-69
2021/03/05 05:20:16;0.00;0.00;0.62;0.00;0.00;0.62;1.87;1.13;;;21.40;21.90;;;;;;2245863;61;20445;-68
2021/03/05 05:23:01;0.00;0.00;0.62;0.00;0.00;0.62;2.70;1.23;;;21.40;21.90;;;;;;2245520;61;20641;-68
2021/03/05 05:25:45;0.00;0.00;0.62;0.00;0.00;0.62;2.37;1.20;;;21.40;21.90;;;;;;2245815;61;20368;-68
2021/03/05 05:28:30;0.00;0.00;0.62;0.00;0.00;0.62;1.97;1.10;;;21.40;21.80;;;;;;2244869;61;20434;-69
2021/03/05 05:31:15;0.00;0.00;0.62;0.00;0.00;0.62;2.10;1.13;;;21.30;21.80;;;;;;2245215;61;20371;-68
2021/03/05 05:34:00;0.00;0.00;0.62;0.00;0.00;0.62;1.70;1.10;;;21.30;21.80;;;;;;2245695;61;20465;-68
2021/03/05 05:36:45;0.00;0.00;0.62;0.00;0.00;0.62;1.80;1.00;;;21.30;21.80;;;;;;2245417;61;20437;-68
2021/03/05 05:39:29;0.00;0.00;0.62;0.00;0.00;0.62;2.30;1.03;;;21.30;21.80;;;;;;2245668;61;20428;-68
2021/03/05 05:42:16;0.00;0.00;0.62;0.00;0.00;0.62;1.73;1.00;;;21.20;21.70;;;;;;2245866;61;20647;-69
2021/03/05 05:45:00;0.00;0.00;0.62;0.00;0.00;0.62;1.70;1.10;;;21.20;21.70;;;;;;2245653;61;20389;-68
2021/03/05 05:47:46;0.00;0.00;0.62;0.00;0.00;0.62;2.27;1.07;;;21.20;21.80;;;;;;2245427;61;20711;-68
2021/03/05 05:50:32;0.00;0.00;0.62;0.00;0.00;0.62;2.50;1.07;;;21.20;22.30;;;;;;2245668;61;20367;-68
2021/03/05 05:53:17;0.00;0.00;0.62;0.00;0.00;0.62;2.00;1.33;;;21.10;21.70;;;;;;2245649;61;20608;-68
2021/03/05 05:56:01;0.00;0.00;0.62;0.00;0.00;0.62;1.73;1.13;;;21.10;21.70;;;;;;2245889;61;20373;-67
2021/03/05 05:58:46;0.00;0.00;0.62;0.00;0.00;0.62;1.73;1.20;;;21.10;21.70;;;;;;2245154;61;20382;-68
2021/03/05 06:01:33;0.00;0.00;0.62;0.00;0.00;0.62;1.80;1.10;;;21.10;21.70;;;;;;2245163;61;20370;-69
2021/03/05 06:04:17;0.00;0.00;0.62;0.00;0.00;0.62;3.03;1.40;;;21.10;21.70;;;;;;2245881;61;20804;-69
2021/03/05 06:07:03;0.00;0.00;0.62;0.00;0.00;0.62;2.20;1.23;;;21.10;21.70;;;;;;2245372;61;20363;-69
2021/03/05 06:09:49;0.00;0.00;0.62;0.00;0.00;0.62;3.23;1.10;;;21.00;21.70;;;;;;2245097;61;20388;-69
2021/03/05 06:12:34;0.00;0.00;0.62;0.00;0.00;0.62;2.63;0.97;;;21.00;21.70;;;;;;2245438;61;20371;-68
2021/03/05 06:15:20;0.00;0.00;0.62;0.00;0.00;0.62;1.50;1.07;;;21.00;21.70;;;;;;2245742;61;20569;-68
2021/03/05 06:18:06;0.00;0.00;0.62;0.00;0.00;0.62;2.00;1.03;;;20.90;21.60;;;;;;2245754;61;20824;-69
2021/03/05 06:20:50;0.00;0.00;0.62;0.00;0.00;0.62;1.90;1.17;;;20.90;21.60;;;;;;2245478;61;20428;-69
2021/03/05 06:23:54;0.00;0.00;0.62;0.00;0.00;0.62;2.30;1.03;;;20.90;21.60;;;;;;2245466;61;20391;-69
2021/03/05 06:26:51;0.00;0.00;0.62;0.00;0.00;0.62;2.07;1.10;;;20.90;21.70;;;;;;2245719;61;20377;-68
2021/03/05 06:29:41;0.00;0.00;0.62;0.00;0.00;0.62;1.63;1.13;;;20.90;21.70;;;;;;2245454;61;20380;-69
2021/03/05 06:32:39;0.00;0.00;0.62;0.00;0.00;0.62;2.60;1.30;;;20.80;21.60;;;;;;2245247;61;20426;-69
2021/03/05 06:35:25;0.00;0.00;0.62;0.00;0.00;0.62;1.93;1.50;;;20.90;21.70;;;;;;2245444;61;20411;-69
2021/03/05 06:38:09;0.00;0.00;0.62;0.00;0.00;0.62;3.23;1.13;;;20.80;21.60;;;;;;2245247;61;20407;-69
2021/03/05 06:41:14;0.00;0.00;0.62;0.00;0.00;0.62;2.27;1.30;;;20.80;21.60;;;;;;2245768;61;20367;-69
2021/03/05 06:44:01;0.00;0.00;0.62;0.00;0.00;0.62;2.20;1.17;;;20.80;21.70;;;;;;2245416;61;20416;-69
2021/03/05 06:46:45;0.00;0.00;0.62;0.00;0.00;0.62;2.10;1.20;;;20.80;21.70;;;;;;2245070;61;20387;-69
2021/03/05 06:49:30;0.00;0.00;0.62;0.00;0.00;0.62;2.13;1.40;;;20.70;21.60;;;;;;2245453;61;20526;-69
2021/03/05 06:52:17;0.00;0.00;0.62;0.00;0.00;0.62;1.83;0.90;;;20.70;21.70;;;;;;2245363;61;20629;-68
2021/03/05 06:55:03;0.00;0.00;0.62;0.00;0.00;0.62;3.37;1.70;;;20.70;21.70;;;;;;2245633;61;20372;-68
2021/03/05 06:57:51;0.00;0.00;0.62;0.00;0.00;0.62;2.10;1.30;;;20.70;21.70;;;;;;2245291;61;20388;-68
2021/03/05 07:00:36;0.00;0.00;0.62;0.00;0.00;0.62;1.40;1.00;;;20.70;21.70;;;;;;2245489;61;20786;-70
2021/03/05 07:03:22;0.00;0.00;0.62;0.00;0.00;0.62;1.77;1.20;;;20.70;21.70;;;;;;2245687;61;20600;-70
2021/03/05 07:06:17;0.00;0.00;0.62;0.00;0.00;0.62;1.80;1.00;;;20.60;21.60;;;;;;2244919;61;20487;-68
2021/03/05 07:09:05;0.00;0.00;0.62;0.00;0.00;0.62;2.73;1.30;;;20.70;21.70;;;;;;2245041;61;20404;-70
2021/03/05 07:11:52;0.00;0.00;0.62;0.00;0.00;0.62;2.20;1.30;;;20.60;21.60;;;;;;2245242;61;20389;-68
2021/03/05 07:14:39;0.00;0.00;0.62;0.00;0.00;0.62;2.07;1.17;;;20.60;21.70;;;;;;2245344;61;20349;-70
2021/03/05 07:17:24;0.00;0.00;0.62;0.00;0.00;0.62;3.07;1.40;;;20.60;21.60;;;;;;2245755;61;20389;-68
2021/03/05 07:20:11;0.00;0.00;0.62;0.00;0.00;0.62;1.77;1.10;;;20.60;21.60;;;;;;2245966;61;20365;-70
2021/03/05 07:22:59;0.00;0.00;0.62;0.00;0.00;0.62;3.03;1.20;;;20.60;21.70;;;;;;2246007;61;20589;-70
2021/03/05 07:25:44;0.00;0.00;0.62;0.00;0.00;0.62;2.50;1.40;;;20.60;21.60;;;;;;2246313;61;20360;-70
2021/03/05 07:28:30;0.00;0.00;0.62;0.00;0.00;0.62;3.60;1.50;;;20.60;21.60;;;;;;2245601;61;20406;-70
2021/03/05 07:31:20;0.00;0.00;0.62;0.00;0.00;0.62;4.70;1.30;;;20.50;21.60;;;;;;2246021;61;20435;-70
2021/03/05 07:34:08;0.00;0.00;0.62;0.00;0.00;0.62;2.17;1.50;;;20.50;21.60;;;;;;2245801;61;20367;-70
2021/03/05 07:36:57;0.00;0.00;0.62;0.00;0.00;0.62;2.10;1.20;;;20.50;21.60;;;;;;2245822;61;20376;-70
2021/03/05 07:39:46;0.00;0.00;0.62;0.00;0.00;0.62;2.93;1.70;;;20.50;21.60;;;;;;2245837;61;20645;-70
2021/03/05 07:42:32;0.00;0.00;0.62;0.00;0.00;0.62;3.73;1.73;;;20.50;22.10;;;;;;2245870;61;20514;-70
2021/03/05 07:45:18;0.00;0.00;0.62;0.00;0.00;0.62;4.47;2.13;;;20.50;21.60;;;;;;2246008;61;20370;-69
2021/03/05 07:48:09;0.00;0.00;0.62;0.00;0.00;0.62;3.53;2.30;;;20.50;21.60;;;;;;2246060;61;20407;-69
2021/03/05 07:50:58;0.00;0.00;0.62;0.00;0.00;0.62;2.80;2.03;;;20.50;21.60;;;;;;2245601;61;20366;-69
2021/03/05 07:53:51;0.00;0.00;0.62;0.00;0.00;0.62;3.60;2.27;;;20.50;21.60;;;;;;2246200;61;20643;-69
2021/03/05 07:56:44;0.00;0.00;0.62;0.00;0.00;0.62;4.40;2.70;;;20.50;21.60;;;;;;2245917;61;20366;-71
2021/03/05 07:59:50;0.00;0.00;0.62;0.00;0.00;0.62;5.23;3.03;;;20.50;21.70;;;;;;2246004;61;20635;-71
2021/03/05 08:02:57;0.00;0.00;0.62;0.00;0.00;0.62;4.30;3.23;;;20.40;21.60;;;;;;2246301;61;20602;-70
2021/03/05 08:05:45;0.00;0.00;0.62;0.00;0.00;0.62;8.67;5.07;;;20.40;21.60;;;;;;2245610;61;20642;-70
2021/03/05 08:08:31;0.00;0.00;0.62;0.00;0.00;0.62;7.37;5.40;;;20.40;21.60;;;;;;2245873;61;20391;-63
2021/03/05 08:11:26;0.00;0.00;0.62;0.00;0.00;0.62;6.00;4.40;;;20.40;21.60;;;;;;2245573;61;20697;-66
2021/03/05 08:14:27;0.00;0.00;0.62;0.00;0.00;0.62;5.67;4.33;;;20.40;21.60;;;;;;2245759;61;20389;-66
2021/03/05 08:17:33;0.00;0.00;0.62;0.00;0.00;0.62;6.23;4.60;;;20.40;21.70;;;;;;2246096;61;20375;-62
2021/03/05 08:20:49;0.00;0.00;0.62;0.00;0.00;0.62;5.50;4.20;;;20.40;21.70;;;;;;2246222;61;20359;-62
2021/03/05 08:23:34;0.00;0.00;0.62;0.00;0.00;0.62;5.40;3.70;;;20.40;21.70;;;;;;2245803;61;20412;-64
2021/03/05 08:26:18;0.00;0.00;0.62;0.00;0.00;0.62;5.80;4.13;;;20.40;21.80;;;;;;2245369;61;20720;-65
2021/03/05 08:29:03;0.00;0.00;0.62;0.00;0.00;0.62;4.53;4.03;;;20.40;21.80;;;;;;2245669;61;20395;-65
2021/03/05 08:31:48;0.00;0.00;0.62;0.00;0.00;0.62;7.13;4.47;;;20.40;21.80;;;;;;2246115;61;20367;-66
2021/03/05 08:34:33;0.00;0.00;0.62;0.00;0.00;0.62;7.90;4.00;;;20.40;21.80;;;;;;2245453;61;20350;-64
2021/03/05 08:37:28;0.00;0.00;0.62;0.00;0.00;0.62;5.53;4.40;;;20.50;21.90;;;;;;2245646;61;20369;-66
2021/03/05 08:40:28;0.00;0.00;0.62;0.00;0.00;0.62;5.37;3.63;;;20.50;21.90;;;;;;2245692;61;20386;-65
2021/03/05 08:43:22;0.00;0.00;0.62;0.00;0.00;0.62;7.07;3.93;;;20.50;21.90;;;;;;2245680;61;20367;-67
2021/03/05 08:46:12;0.00;0.00;0.62;0.00;0.00;0.62;5.20;4.37;;;20.50;21.90;;;;;;2245492;61;20392;-65
2021/03/05 08:48:57;0.00;0.00;0.62;0.00;0.00;0.62;5.90;4.80;;;20.50;21.80;;;;;;2247306;48;20428;-64
2021/03/05 08:51:45;0.00;0.00;0.62;0.00;0.00;0.62;5.70;4.20;;;20.50;21.80;;;;;;2241913;62;20373;-64
2021/03/05 08:54:32;0.00;0.00;0.62;0.00;0.00;0.62;6.53;5.23;;;20.50;21.90;;;;;;2241446;62;20387;-63
2021/03/05 08:57:18;0.00;0.00;0.62;0.00;0.00;0.62;7.57;5.10;;;20.60;21.90;;;;;;2241822;62;20443;-69
2021/03/05 09:00:06;0.00;0.00;0.62;0.00;0.00;0.62;6.33;5.00;;;20.60;21.90;;;;;;2241974;62;20623;-65
2021/03/05 09:02:51;0.00;0.00;0.62;0.00;0.00;0.62;6.90;4.70;;;20.70;21.90;;;;;;2242221;62;20624;-63
2021/03/05 09:05:38;0.00;0.00;0.62;0.00;0.00;0.62;5.90;4.43;;;20.70;21.90;;;;;;2241774;62;20372;-61
2021/03/05 09:08:25;0.00;0.00;0.62;0.00;0.00;0.62;6.20;4.30;;;20.70;21.90;;;;;;2241586;62;20388;-63
2021/03/05 09:11:14;0.00;0.00;0.62;0.00;0.00;0.62;4.50;3.80;;;20.70;21.90;;;;;;2238944;62;20404;-63
2021/03/05 09:13:59;0.00;0.00;0.62;0.00;0.00;0.62;5.97;4.90;;;20.70;21.80;;;;;;2241692;62;20483;-63
2021/03/05 09:16:55;0.00;0.00;0.62;0.00;0.00;0.62;6.67;4.83;;;20.70;21.80;;;;;;2241924;62;20366;-65
2021/03/05 09:19:42;0.00;0.00;0.62;0.00;0.00;0.62;14.53;9.70;;;20.80;21.80;;;;;;2242259;62;20643;-64
2021/03/05 09:22:27;0.00;0.00;0.62;0.00;0.00;0.62;8.37;6.80;;;20.80;21.80;;;;;;2244114;61;20486;-65
2021/03/05 09:25:13;0.00;0.00;0.62;0.00;0.00;0.62;7.37;6.63;;;20.80;21.80;;;;;;2241319;62;20444;-65
2021/03/05 09:27:58;0.00;0.00;0.62;0.00;0.00;0.62;10.67;8.10;;;20.80;21.80;;;;;;2241447;62;20397;-65
2021/03/05 09:30:47;0.00;0.00;0.62;0.00;0.00;0.62;8.77;7.60;;;20.80;21.80;;;;;;2241542;62;20362;-66
2021/03/05 09:33:34;0.00;0.00;0.62;0.00;0.00;0.62;9.50;6.73;;;20.90;21.80;;;;;;2241197;62;20725;-63
2021/03/05 09:36:21;0.00;0.00;0.62;0.00;0.00;0.62;9.07;7.17;;;20.90;21.80;;;;;;2241489;62;20447;-63
2021/03/05 09:39:07;0.00;0.00;0.62;0.00;0.00;0.62;9.80;7.80;;;20.90;21.80;;;;;;2241595;62;20590;-64
2021/03/05 09:41:52;0.00;0.00;0.62;0.00;0.00;0.62;8.37;7.00;;;20.90;21.80;;;;;;2241183;62;20361;-62
2021/03/05 09:44:45;0.00;0.00;0.62;0.00;0.00;0.62;8.27;6.53;;;20.90;21.80;;;;;;2241799;62;20363;-66
2021/03/05 09:47:45;0.00;0.00;0.62;0.00;0.00;0.62;8.13;5.43;;;20.90;21.80;;;;;;2241452;62;20612;-66
2021/03/05 09:50:31;0.00;0.00;0.62;0.00;0.00;0.62;12.00;7.50;;;21.00;21.90;;;;;;2241705;62;20424;-62
2021/03/05 09:53:24;0.00;0.00;0.62;0.00;0.00;0.62;10.30;6.63;;;21.00;21.90;;;;;;2241499;62;20360;-64
2021/03/05 09:56:09;0.00;0.00;0.62;0.00;0.00;0.62;11.73;8.00;;;21.00;21.90;;;;;;2241702;62;20376;-65
2021/03/05 09:58:57;0.00;0.00;0.62;0.00;0.00;0.62;8.20;5.53;;;21.10;22.00;;;;;;2241306;62;20385;-66
2021/03/05 10:01:44;0.00;0.00;0.62;0.00;0.00;0.62;7.17;5.97;;;21.10;22.00;;;;;;2241512;62;20362;-64
2021/03/05 10:04:28;0.00;0.00;0.62;0.00;0.00;0.62;6.97;5.40;;;21.10;22.00;;;;;;2241640;62;20388;-62
2021/03/05 10:07:13;0.00;0.00;0.62;0.00;0.00;0.62;7.53;6.00;;;21.10;21.90;;;;;;2241501;62;20355;-64
2021/03/05 10:10:07;0.00;0.00;0.62;0.00;0.00;0.62;8.33;6.37;;;21.20;22.00;;;;;;2241636;62;20438;-64
2021/03/05 10:12:53;0.00;0.00;0.62;0.00;0.00;0.62;7.60;6.37;;;21.20;22.00;;;;;;2241808;62;20400;-64
2021/03/05 10:15:49;0.00;0.00;0.62;0.00;0.00;0.62;7.10;6.40;;;21.20;21.90;;;;;;2241688;62;20698;-64
2021/03/05 10:18:37;0.00;0.00;0.62;0.00;0.00;0.62;9.80;6.50;;;21.30;22.00;;;;;;2241666;62;20457;-61
2021/03/05 10:21:23;0.00;0.00;0.62;0.00;0.00;0.62;9.90;6.57;;;21.30;22.00;;;;;;2241946;62;20595;-62
2021/03/05 10:24:10;0.00;0.00;0.62;0.00;0.00;0.62;7.30;6.23;;;21.30;22.00;;;;;;2241752;62;20380;-64
2021/03/05 10:27:11;0.00;0.00;0.62;0.00;0.00;0.62;9.70;6.90;;;21.30;22.00;;;;;;2241693;62;20441;-64
2021/03/05 10:30:04;0.00;0.00;0.62;0.00;0.00;0.62;8.13;6.37;;;21.40;22.00;;;;;;2241663;62;20423;-62
2021/03/05 10:32:49;0.00;0.00;0.62;0.00;0.00;0.62;8.20;6.40;;;21.40;22.00;;;;;;2241583;62;20397;-64
2021/03/05 10:35:34;0.00;0.00;0.62;0.00;0.00;0.62;7.57;5.93;;;21.40;22.00;;;;;;2241804;62;20703;-66
2021/03/05 10:38:21;0.00;0.00;0.62;0.00;0.00;0.62;7.23;5.40;;;21.40;21.90;;;;;;2241566;62;20381;-61
2021/03/05 10:41:07;0.00;0.00;0.62;0.00;0.00;0.62;6.70;5.37;;;21.50;22.00;;;;;;2241708;62;20364;-64
2021/03/05 10:43:52;0.00;0.00;0.62;0.00;0.00;0.62;7.13;5.63;;;21.50;21.90;;;;;;2243001;62;20393;-63
2021/03/05 10:46:36;0.00;0.00;0.62;0.00;0.00;0.62;6.10;5.30;;;21.50;21.90;;;;;;2239361;62;20567;-62
2021/03/05 10:49:21;0.00;0.00;0.62;0.00;0.00;0.62;5.90;5.27;;;21.60;21.90;;;;;;2241805;61;20278;-61
2021/03/05 10:52:11;0.00;0.00;0.62;0.00;0.00;0.62;6.07;5.23;;;21.60;21.90;;;;;;2241432;62;20367;-62
2021/03/05 10:54:56;0.00;0.00;0.62;0.00;0.00;0.62;5.67;4.80;;;21.70;21.90;;;;;;2241504;62;20366;-59
2021/03/05 10:57:41;0.00;0.00;0.62;0.00;0.00;0.62;6.63;5.53;;;21.70;21.90;;;;;;2241835;62;20590;-61
2021/03/05 11:00:26;0.00;0.00;0.62;0.00;0.00;0.62;5.70;4.70;;;21.80;21.90;;;;;;2241572;62;20646;-62
2021/03/05 11:03:10;0.00;0.00;0.62;0.00;0.00;0.62;7.37;4.63;;;21.70;21.80;;;;;;2241557;62;20651;-63